Time;durP1;ratioP1;P1;durP2;ratioP2;P2;SDS_P1;SDS_P2;PMS_P1;PMS_P2;Temp;Humidity;BMP_temperature;BMP_pressure;BME280_temperature;BME280_humidity;BME280_pressure;Samples;Min_cycle;Max_cycle;Signal;HPM_P1;HPM_P2
2023/09/10 00:01:48;;;;;;;15.95;7.93;;;;;;;;;;6180574;23;20024;-42
2023/09/10 00:04:16;;;;;;;16.33;8.93;;;;;;;;;;6181331;23;20123;-41
2023/09/10 00:06:43;;;;;;;14.60;8.90;;;;;;;;;;6185149;23;20096;-43
2023/09/10 00:09:13;;;;;;;15.25;8.30;;;;;;;;;;6177394;23;20605;-42
2023/09/10 00:11:41;;;;;;;13.03;8.27;;;;;;;;;;6184220;23;20040;-44
2023/09/10 00:14:08;;;;;;;15.45;8.60;;;;;;;;;;6188071;23;20464;-42
2023/09/10 00:16:36;;;;;;;15.73;8.40;;;;;;;;;;6186284;23;20023;-42
2023/09/10 00:19:04;;;;;;;14.48;8.40;;;;;;;;;;6184302;23;20513;-42
2023/09/10 00:21:31;;;;;;;16.70;9.43;;;;;;;;;;6182347;23;20016;-43
2023/09/10 00:23:59;;;;;;;15.77;9.57;;;;;;;;;;6188205;23;20016;-49
2023/09/10 00:26:28;;;;;;;16.90;9.15;;;;;;;;;;6173716;23;20021;-44
2023/09/10 00:28:56;;;;;;;17.95;8.90;;;;;;;;;;6191380;23;20017;-43
2023/09/10 00:31:24;;;;;;;17.83;9.35;;;;;;;;;;6180393;23;20044;-45
2023/09/10 00:33:52;;;;;;;16.33;9.73;;;;;;;;;;6185751;23;20023;-42
2023/09/10 00:36:20;;;;;;;15.40;8.93;;;;;;;;;;6180119;23;20012;-41
2023/09/10 00:38:47;;;;;;;15.95;9.85;;;;;;;;;;6187477;23;20024;-45
2023/09/10 00:41:15;;;;;;;16.80;9.52;;;;;;;;;;6182747;23;20016;-42
2023/09/10 00:43:47;;;;;;;18.73;10.30;;;;;;;;;;6178371;23;20013;-42
2023/09/10 00:46:14;;;;;;;18.98;10.07;;;;;;;;;;6191035;23;20107;-43
2023/09/10 00:48:43;;;;;;;19.37;10.30;;;;;;;;;;6175392;23;20012;-41
2023/09/10 00:51:10;;;;;;;20.70;10.05;;;;;;;;;;6186593;23;20071;-42
2023/09/10 00:53:38;;;;;;;19.30;10.35;;;;;;;;;;6177237;23;20025;-43
2023/09/10 00:56:06;;;;;;;17.65;10.43;;;;;;;;;;6185854;23;20395;-43
2023/09/10 00:58:34;;;;;;;17.98;10.73;;;;;;;;;;6182749;23;20023;-42
2023/09/10 01:01:03;;;;;;;18.67;10.67;;;;;;;;;;6182624;23;20271;-41
2023/09/10 01:03:32;;;;;;;17.80;10.27;;;;;;;;;;6178151;23;20012;-42
2023/09/10 01:06:00;;;;;;;17.95;10.75;;;;;;;;;;6187573;23;20020;-46
2023/09/10 01:08:28;;;;;;;19.05;11.50;;;;;;;;;;6140522;23;20028;-42
2023/09/10 01:11:01;;;;;;;17.52;9.93;;;;;;;;;;6164190;23;20498;-45
2023/09/10 01:13:31;;;;;;;17.37;10.70;;;;;;;;;;6193295;23;20455;-42
2023/09/10 01:16:03;;;;;;;15.07;10.32;;;;;;;;;;6179171;23;20044;-43
2023/09/10 01:18:34;;;;;;;15.88;9.70;;;;;;;;;;6183795;23;20051;-42
2023/09/10 01:21:10;;;;;;;15.13;10.32;;;;;;;;;;6184045;23;20585;-42
2023/09/10 01:23:43;;;;;;;20.40;10.35;;;;;;;;;;6186752;23;20017;-41
2023/09/10 01:26:13;;;;;;;19.57;10.40;;;;;;;;;;6179411;23;20036;-42
2023/09/10 01:28:40;;;;;;;17.42;10.98;;;;;;;;;;6158837;23;20479;-45
2023/09/10 01:31:09;;;;;;;18.10;9.93;;;;;;;;;;6191642;23;20025;-45
2023/09/10 01:33:39;;;;;;;16.88;10.00;;;;;;;;;;6187718;23;20589;-43
2023/09/10 01:36:10;;;;;;;15.07;9.48;;;;;;;;;;6188502;23;20036;-42
2023/09/10 01:38:41;;;;;;;18.77;10.60;;;;;;;;;;6171740;23;20024;-42
2023/09/10 01:41:11;;;;;;;15.55;10.20;;;;;;;;;;6187935;23;20515;-44
2023/09/10 01:43:41;;;;;;;21.27;11.15;;;;;;;;;;6186829;23;20103;-44
2023/09/10 01:46:09;;;;;;;16.95;10.50;;;;;;;;;;6178313;23;20028;-42
2023/09/10 01:48:38;;;;;;;17.38;11.15;;;;;;;;;;6177715;23;20021;-42
2023/09/10 01:51:07;;;;;;;16.90;11.17;;;;;;;;;;6186235;23;20070;-46
2023/09/10 01:53:35;;;;;;;19.63;11.18;;;;;;;;;;6190599;23;20088;-44
2023/09/10 01:56:03;;;;;;;18.73;10.60;;;;;;;;;;6181776;23;20024;-43
2023/09/10 01:58:31;;;;;;;15.98;10.43;;;;;;;;;;6181934;23;20440;-42
2023/09/10 02:01:00;;;;;;;17.08;10.90;;;;;;;;;;6193377;23;20032;-43
2023/09/10 02:03:28;;;;;;;19.27;11.30;;;;;;;;;;6184424;23;20023;-45
2023/09/10 02:05:58;;;;;;;20.63;13.35;;;;;;;;;;6193445;23;20021;-42
2023/09/10 02:08:26;;;;;;;22.90;13.45;;;;;;;;;;6181747;23;20572;-43
2023/09/10 02:10:53;;;;;;;25.05;13.98;;;;;;;;;;6193135;23;20013;-43
2023/09/10 02:13:22;;;;;;;20.92;13.07;;;;;;;;;;6189326;23;20056;-43
2023/09/10 02:15:54;;;;;;;25.27;12.60;;;;;;;;;;6178124;23;20035;-43
2023/09/10 02:18:23;;;;;;;25.75;14.38;;;;;;;;;;6169201;23;20051;-44
2023/09/10 02:20:50;;;;;;;24.20;14.82;;;;;;;;;;6193337;23;20337;-42
2023/09/10 02:23:19;;;;;;;21.10;13.98;;;;;;;;;;6196986;23;20096;-42
2023/09/10 02:25:47;;;;;;;22.67;14.05;;;;;;;;;;6182949;23;20048;-47
2023/09/10 02:28:15;;;;;;;24.53;15.23;;;;;;;;;;6195433;23;20012;-44
2023/09/10 02:30:43;;;;;;;23.08;13.65;;;;;;;;;;6183699;23;20012;-43
2023/09/10 02:33:12;;;;;;;20.23;12.00;;;;;;;;;;6194172;23;20452;-43
2023/09/10 02:35:43;;;;;;;20.58;12.02;;;;;;;;;;6191075;23;20056;-44
2023/09/10 02:38:10;;;;;;;22.02;11.27;;;;;;;;;;6186843;23;20017;-42
2023/09/10 02:40:38;;;;;;;18.40;11.73;;;;;;;;;;6195644;23;20023;-42
2023/09/10 02:43:07;;;;;;;19.58;12.15;;;;;;;;;;6181991;23;20793;-42
2023/09/10 02:45:34;;;;;;;20.60;11.50;;;;;;;;;;6190941;23;20021;-44
2023/09/10 02:48:02;;;;;;;18.02;10.98;;;;;;;;;;6182334;23;20484;-43
2023/09/10 02:50:30;;;;;;;22.50;11.75;;;;;;;;;;6193078;23;20027;-42
2023/09/10 02:52:59;;;;;;;23.27;12.57;;;;;;;;;;6177294;23;20017;-44
2023/09/10 02:55:27;;;;;;;23.05;12.90;;;;;;;;;;6193948;23;20067;-48
2023/09/10 02:57:55;;;;;;;23.27;13.15;;;;;;;;;;6181303;23;20017;-42
2023/09/10 03:00:25;;;;;;;21.80;12.82;;;;;;;;;;6194786;23;20013;-42
2023/09/10 03:02:54;;;;;;;18.23;13.20;;;;;;;;;;6187385;23;20016;-43
2023/09/10 03:05:22;;;;;;;26.17;13.13;;;;;;;;;;6194974;23;20039;-43
2023/09/10 03:07:51;;;;;;;22.13;13.68;;;;;;;;;;6184756;23;20039;-42
2023/09/10 03:10:20;;;;;;;20.23;13.38;;;;;;;;;;6198135;23;20024;-44
2023/09/10 03:12:48;;;;;;;23.40;13.57;;;;;;;;;;6185530;23;20484;-43
2023/09/10 03:15:16;;;;;;;19.20;12.85;;;;;;;;;;6195203;23;20024;-41
2023/09/10 03:17:43;;;;;;;21.70;13.00;;;;;;;;;;6185064;23;20431;-42
2023/09/10 03:20:12;;;;;;;23.95;13.88;;;;;;;;;;6194457;23;20016;-43
2023/09/10 03:22:40;;;;;;;22.63;13.27;;;;;;;;;;6192845;23;20017;-42
2023/09/10 03:25:08;;;;;;;22.90;13.57;;;;;;;;;;6183146;23;20628;-45
2023/09/10 03:27:37;;;;;;;19.02;13.23;;;;;;;;;;6198065;23;20631;-42
2023/09/10 03:30:05;;;;;;;25.83;16.60;;;;;;;;;;6184188;23;20013;-42
2023/09/10 03:32:32;;;;;;;27.35;14.57;;;;;;;;;;6196450;23;20009;-43
2023/09/10 03:35:03;;;;;;;23.13;13.30;;;;;;;;;;6172371;23;20021;-43
2023/09/10 03:37:31;;;;;;;18.73;12.32;;;;;;;;;;6190960;23;20043;-44
2023/09/10 03:39:59;;;;;;;20.85;12.40;;;;;;;;;;6188873;23;20071;-44
2023/09/10 03:42:29;;;;;;;24.17;12.63;;;;;;;;;;6194025;23;20017;-43
2023/09/10 03:44:58;;;;;;;18.92;11.95;;;;;;;;;;6192134;23;20617;-42
2023/09/10 03:47:28;;;;;;;19.17;12.27;;;;;;;;;;6193475;23;20511;-46
2023/09/10 03:49:56;;;;;;;21.05;13.93;;;;;;;;;;6186842;23;20036;-43
2023/09/10 03:52:27;;;;;;;23.38;14.18;;;;;;;;;;6195164;23;20141;-44
2023/09/10 03:54:55;;;;;;;21.50;14.63;;;;;;;;;;6176339;23;20013;-47
2023/09/10 03:57:23;;;;;;;23.77;14.07;;;;;;;;;;6190685;23;20012;-42
2023/09/10 03:59:50;;;;;;;24.77;14.82;;;;;;;;;;6184207;23;20405;-42
2023/09/10 04:02:19;;;;;;;24.27;14.48;;;;;;;;;;6190522;23;20317;-45
2023/09/10 04:04:47;;;;;;;21.83;13.20;;;;;;;;;;6187955;23;20024;-45
2023/09/10 04:07:15;;;;;;;19.37;12.07;;;;;;;;;;6192748;23;20023;-43
2023/09/10 04:09:44;;;;;;;22.70;12.88;;;;;;;;;;6183609;23;20375;-42
2023/09/10 04:12:12;;;;;;;21.77;12.38;;;;;;;;;;6190426;23;20027;-45
2023/09/10 04:14:40;;;;;;;22.48;12.88;;;;;;;;;;6191312;23;20020;-42
2023/09/10 04:17:07;;;;;;;19.42;13.55;;;;;;;;;;6171473;23;20252;-42
2023/09/10 04:19:37;;;;;;;22.50;13.20;;;;;;;;;;6197169;23;20458;-41
2023/09/10 04:22:05;;;;;;;21.27;12.98;;;;;;;;;;6187997;23;20020;-42
2023/09/10 04:24:33;;;;;;;20.55;13.38;;;;;;;;;;6192022;23;20032;-42
2023/09/10 04:27:01;;;;;;;24.85;13.60;;;;;;;;;;6188224;23;20090;-42
2023/09/10 04:29:29;;;;;;;25.48;15.98;;;;;;;;;;6191311;23;20016;-43
2023/09/10 04:31:56;;;;;;;28.47;17.43;;;;;;;;;;6188893;23;20017;-43
2023/09/10 04:34:25;;;;;;;26.98;17.52;;;;;;;;;;6193717;23;20070;-41
2023/09/10 04:36:54;;;;;;;29.80;18.10;;;;;;;;;;6184987;23;20017;-44
2023/09/10 04:39:22;;;;;;;30.88;18.35;;;;;;;;;;6191606;23;20030;-43
2023/09/10 04:41:53;;;;;;;33.40;20.98;;;;;;;;;;6195947;23;20445;-42
2023/09/10 04:44:21;;;;;;;36.43;20.33;;;;;;;;;;6189410;23;20107;-42
2023/09/10 04:46:48;;;;;;;35.22;22.23;;;;;;;;;;6188697;23;20023;-42
2023/09/10 04:49:17;;;;;;;32.65;21.95;;;;;;;;;;6186298;23;20043;-42
2023/09/10 04:51:46;;;;;;;36.22;23.00;;;;;;;;;;6185383;23;20016;-42
2023/09/10 04:54:15;;;;;;;37.38;23.38;;;;;;;;;;6183940;23;20016;-42
2023/09/10 04:56:43;;;;;;;36.63;22.67;;;;;;;;;;6183960;23;20024;-41
2023/09/10 04:59:11;;;;;;;36.72;22.50;;;;;;;;;;6191404;23;20013;-44
2023/09/10 05:01:38;;;;;;;34.85;22.42;;;;;;;;;;6178319;23;20013;-42
2023/09/10 05:04:07;;;;;;;34.50;22.65;;;;;;;;;;6186309;23;20013;-44
2023/09/10 05:06:35;;;;;;;34.35;21.30;;;;;;;;;;6185768;23;20020;-42
2023/09/10 05:09:03;;;;;;;35.70;21.27;;;;;;;;;;6176562;23;20024;-41
2023/09/10 05:11:33;;;;;;;33.75;22.10;;;;;;;;;;6191311;23;20013;-43
2023/09/10 05:14:01;;;;;;;34.20;21.25;;;;;;;;;;6178224;23;20032;-43
2023/09/10 05:16:29;;;;;;;36.50;22.90;;;;;;;;;;6189856;23;20082;-44
2023/09/10 05:18:58;;;;;;;33.22;22.50;;;;;;;;;;6183619;23;20062;-41
2023/09/10 05:21:25;;;;;;;35.57;22.47;;;;;;;;;;6182955;23;20398;-41
2023/09/10 05:23:53;;;;;;;36.83;22.35;;;;;;;;;;6172558;23;20309;-43
2023/09/10 05:26:22;;;;;;;38.58;22.58;;;;;;;;;;6156655;23;20428;-41
2023/09/10 05:28:51;;;;;;;34.50;21.60;;;;;;;;;;6183305;23;20355;-43
2023/09/10 05:31:21;;;;;;;34.15;22.65;;;;;;;;;;6184053;23;20451;-42
2023/09/10 05:33:50;;;;;;;34.77;22.47;;;;;;;;;;6188046;23;20027;-43
2023/09/10 05:36:17;;;;;;;35.60;21.02;;;;;;;;;;6177766;23;20020;-44
2023/09/10 05:38:47;;;;;;;32.58;21.60;;;;;;;;;;6182792;23;20545;-41
2023/09/10 05:41:15;;;;;;;34.13;21.88;;;;;;;;;;6180643;23;20020;-43
2023/09/10 05:43:43;;;;;;;39.50;23.05;;;;;;;;;;6192522;23;20012;-43
2023/09/10 05:46:12;;;;;;;38.57;21.83;;;;;;;;;;6180414;23;20096;-46
2023/09/10 05:48:40;;;;;;;34.00;22.23;;;;;;;;;;6188039;23;20040;-42
2023/09/10 05:51:08;;;;;;;37.90;21.35;;;;;;;;;;6175870;23;20020;-44
2023/09/10 05:53:36;;;;;;;37.72;22.60;;;;;;;;;;6187612;23;20028;-43
2023/09/10 05:56:06;;;;;;;39.17;23.58;;;;;;;;;;6180079;23;20522;-44
2023/09/10 05:58:33;;;;;;;37.10;23.17;;;;;;;;;;6188589;23;20013;-43
2023/09/10 06:01:01;;;;;;;41.65;23.08;;;;;;;;;;6174849;23;20043;-44
2023/09/10 06:03:31;;;;;;;48.20;23.42;;;;;;;;;;6179243;23;20414;-45
2023/09/10 06:06:01;;;;;;;37.13;22.15;;;;;;;;;;6187149;23;20515;-46
2023/09/10 06:08:31;;;;;;;37.88;21.83;;;;;;;;;;6187791;23;20024;-44
2023/09/10 06:10:59;;;;;;;35.17;22.13;;;;;;;;;;6142416;23;20021;-45
2023/09/10 06:13:28;;;;;;;35.10;21.13;;;;;;;;;;6184963;23;20016;-43
2023/09/10 06:16:00;;;;;;;38.17;22.70;;;;;;;;;;6185073;23;20344;-46
2023/09/10 06:18:28;;;;;;;43.08;23.65;;;;;;;;;;6183863;23;20017;-43
2023/09/10 06:20:58;;;;;;;43.25;24.75;;;;;;;;;;6184309;23;20024;-43
2023/09/10 06:23:26;;;;;;;37.17;23.23;;;;;;;;;;6179303;23;20021;-42
2023/09/10 06:25:55;;;;;;;39.03;22.92;;;;;;;;;;6180082;23;20016;-45
2023/09/10 06:28:24;;;;;;;36.50;22.58;;;;;;;;;;6176242;23;20027;-44
2023/09/10 06:30:55;;;;;;;35.92;23.50;;;;;;;;;;6185745;23;20076;-41
2023/09/10 06:33:23;;;;;;;39.28;23.45;;;;;;;;;;6175360;23;20020;-43
2023/09/10 06:35:50;;;;;;;36.93;22.87;;;;;;;;;;6191066;23;20429;-42
2023/09/10 06:38:21;;;;;;;33.38;22.27;;;;;;;;;;6176420;23;20035;-43
2023/09/10 06:40:51;;;;;;;38.55;23.20;;;;;;;;;;6180678;23;20021;-43
2023/09/10 06:43:18;;;;;;;38.30;23.45;;;;;;;;;;6175991;23;20027;-43
2023/09/10 06:45:46;;;;;;;38.35;23.20;;;;;;;;;;6179540;23;20135;-43
2023/09/10 06:48:14;;;;;;;38.37;23.57;;;;;;;;;;6182410;23;20164;-45
2023/09/10 06:50:42;;;;;;;37.50;23.08;;;;;;;;;;6187576;23;20040;-45
2023/09/10 06:53:10;;;;;;;39.13;23.52;;;;;;;;;;6179712;23;20027;-43
2023/09/10 06:55:39;;;;;;;43.33;24.20;;;;;;;;;;6184187;23;20027;-45
2023/09/10 06:58:07;;;;;;;37.55;23.17;;;;;;;;;;6178742;23;20472;-43
2023/09/10 07:00:34;;;;;;;35.63;22.40;;;;;;;;;;6186838;23;20016;-44
2023/09/10 07:03:05;;;;;;;36.15;21.90;;;;;;;;;;6176393;23;20057;-43
2023/09/10 07:05:33;;;;;;;38.35;22.63;;;;;;;;;;6143624;23;20017;-44
2023/09/10 07:08:01;;;;;;;35.65;22.90;;;;;;;;;;6181384;23;20017;-43
2023/09/10 07:10:30;;;;;;;37.72;23.63;;;;;;;;;;6187690;23;20013;-45
2023/09/10 07:13:03;;;;;;;36.13;23.23;;;;;;;;;;6192070;23;20021;-43
2023/09/10 07:15:31;;;;;;;38.88;24.00;;;;;;;;;;6178200;23;20013;-44
2023/09/10 07:17:59;;;;;;;34.80;24.00;;;;;;;;;;6188725;23;20016;-44
2023/09/10 07:20:27;;;;;;;37.95;22.40;;;;;;;;;;6184039;23;20519;-44
2023/09/10 07:22:55;;;;;;;35.20;22.00;;;;;;;;;;6184382;23;20017;-43
2023/09/10 07:25:23;;;;;;;34.87;22.93;;;;;;;;;;6179556;23;20123;-46
2023/09/10 07:27:53;;;;;;;34.88;21.50;;;;;;;;;;6189333;23;20025;-43
2023/09/10 07:30:22;;;;;;;37.50;22.15;;;;;;;;;;6174220;23;20040;-47
2023/09/10 07:32:53;;;;;;;33.92;21.85;;;;;;;;;;6177173;23;20701;-47
2023/09/10 07:35:21;;;;;;;36.10;22.90;;;;;;;;;;6183077;23;20204;-44
2023/09/10 07:37:49;;;;;;;38.70;23.27;;;;;;;;;;6180781;23;20099;-43
2023/09/10 07:40:17;;;;;;;35.03;23.20;;;;;;;;;;6190331;23;20017;-45
2023/09/10 07:42:44;;;;;;;37.15;21.38;;;;;;;;;;6182674;23;20478;-43
2023/09/10 07:45:14;;;;;;;32.78;21.58;;;;;;;;;;6186863;23;20009;-43
2023/09/10 07:47:46;;;;;;;35.13;22.27;;;;;;;;;;6186846;23;20512;-44
2023/09/10 07:50:14;;;;;;;32.40;22.50;;;;;;;;;;6185110;23;20456;-45
2023/09/10 07:52:42;;;;;;;37.00;23.38;;;;;;;;;;6181373;23;20083;-43
2023/09/10 07:55:10;;;;;;;34.00;24.30;;;;;;;;;;6182507;23;20016;-43
2023/09/10 07:57:39;;;;;;;41.63;23.42;;;;;;;;;;6179635;23;20023;-44
2023/09/10 08:00:08;;;;;;;41.63;24.35;;;;;;;;;;6136922;23;20022;-43
2023/09/10 08:02:36;;;;;;;37.87;24.17;;;;;;;;;;6185332;23;20353;-45
2023/09/10 08:05:06;;;;;;;36.42;24.17;;;;;;;;;;6179836;23;20040;-43
2023/09/10 08:07:34;;;;;;;33.13;23.25;;;;;;;;;;6133296;23;20501;-43
2023/09/10 08:10:03;;;;;;;33.90;22.38;;;;;;;;;;6176292;23;20910;-44
2023/09/10 08:12:36;;;;;;;35.15;22.88;;;;;;;;;;6182843;23;20091;-47
2023/09/10 08:15:04;;;;;;;34.43;22.13;;;;;;;;;;6184177;23;20027;-44
2023/09/10 08:17:32;;;;;;;33.13;23.65;;;;;;;;;;6182742;23;20051;-43
2023/09/10 08:19:59;;;;;;;36.70;24.00;;;;;;;;;;6181371;23;20100;-43
2023/09/10 08:22:29;;;;;;;33.17;24.58;;;;;;;;;;6190466;23;20059;-43
2023/09/10 08:24:57;;;;;;;36.92;23.90;;;;;;;;;;6178596;23;20036;-45
2023/09/10 08:27:25;;;;;;;39.13;22.67;;;;;;;;;;6186140;23;20020;-45
2023/09/10 08:29:52;;;;;;;40.53;23.63;;;;;;;;;;6181175;23;20024;-45
2023/09/10 08:32:20;;;;;;;35.85;23.60;;;;;;;;;;6160922;23;20018;-45
2023/09/10 08:34:48;;;;;;;36.55;23.92;;;;;;;;;;6177314;23;20043;-48
2023/09/10 08:37:17;;;;;;;38.17;24.45;;;;;;;;;;6190419;23;20059;-44
2023/09/10 08:39:48;;;;;;;37.20;23.87;;;;;;;;;;6181447;23;20064;-45
2023/09/10 08:42:21;;;;;;;40.53;24.13;;;;;;;;;;6189056;23;20013;-43
2023/09/10 08:44:51;;;;;;;34.30;23.02;;;;;;;;;;6158579;23;20016;-43
2023/09/10 08:47:22;;;;;;;34.10;21.05;;;;;;;;;;6189862;23;20012;-43
2023/09/10 08:49:52;;;;;;;34.13;20.20;;;;;;;;;;6175419;23;20385;-45
2023/09/10 08:52:20;;;;;;;30.07;19.07;;;;;;;;;;6187055;23;20013;-48
2023/09/10 08:54:49;;;;;;;31.17;18.52;;;;;;;;;;6136390;23;20497;-44
2023/09/10 08:57:17;;;;;;;30.27;19.05;;;;;;;;;;6179971;23;20040;-44
2023/09/10 08:59:48;;;;;;;30.92;17.85;;;;;;;;;;6181142;23;20019;-44
2023/09/10 09:02:16;;;;;;;25.10;16.40;;;;;;;;;;6176305;23;20408;-43
2023/09/10 09:04:44;;;;;;;22.90;15.00;;;;;;;;;;6176788;23;20016;-44
2023/09/10 09:07:13;;;;;;;30.85;16.13;;;;;;;;;;6184556;23;20020;-43
2023/09/10 09:09:42;;;;;;;24.25;15.43;;;;;;;;;;6183782;23;20016;-45
2023/09/10 09:12:12;;;;;;;21.80;14.43;;;;;;;;;;6182144;23;20016;-43
2023/09/10 09:14:42;;;;;;;26.17;14.63;;;;;;;;;;6177340;23;20019;-45
2023/09/10 09:17:11;;;;;;;23.80;14.60;;;;;;;;;;6175386;23;20095;-45
2023/09/10 09:19:43;;;;;;;21.30;13.98;;;;;;;;;;6188862;23;20499;-43
2023/09/10 09:22:12;;;;;;;19.42;13.23;;;;;;;;;;6178155;23;20022;-43
2023/09/10 09:24:40;;;;;;;24.90;12.40;;;;;;;;;;6190957;23;20016;-43
2023/09/10 09:27:08;;;;;;;19.25;10.48;;;;;;;;;;6180551;23;20795;-43
2023/09/10 09:29:37;;;;;;;20.20;11.63;;;;;;;;;;6192491;23;20027;-46
2023/09/10 09:32:05;;;;;;;21.88;11.90;;;;;;;;;;6176159;23;20012;-43
2023/09/10 09:34:34;;;;;;;21.00;12.85;;;;;;;;;;6183972;23;20048;-42
2023/09/10 09:37:01;;;;;;;22.63;11.70;;;;;;;;;;6170884;23;20081;-44
2023/09/10 09:39:31;;;;;;;20.77;11.63;;;;;;;;;;6177850;23;20027;-45
2023/09/10 09:41:58;;;;;;;19.10;11.53;;;;;;;;;;6183359;23;20023;-43
2023/09/10 09:44:27;;;;;;;20.88;12.25;;;;;;;;;;6172128;23;20024;-43
2023/09/10 09:47:01;;;;;;;20.20;10.00;;;;;;;;;;6176621;23;20093;-44
2023/09/10 09:49:29;;;;;;;17.25;10.93;;;;;;;;;;6177415;23;20099;-47
2023/09/10 09:51:56;;;;;;;19.55;9.85;;;;;;;;;;6144132;23;20713;-44
2023/09/10 09:54:26;;;;;;;19.20;9.67;;;;;;;;;;6178157;23;20493;-46
2023/09/10 09:56:54;;;;;;;20.58;10.40;;;;;;;;;;6184268;23;20027;-43
2023/09/10 09:59:22;;;;;;;17.50;10.23;;;;;;;;;;6175449;23;20074;-44
2023/09/10 10:01:50;;;;;;;19.15;10.65;;;;;;;;;;6185041;23;20020;-45
2023/09/10 10:04:20;;;;;;;16.75;9.73;;;;;;;;;;6174992;23;20017;-45
2023/09/10 10:06:50;;;;;;;18.37;9.23;;;;;;;;;;6184732;23;20017;-47
2023/09/10 10:09:19;;;;;;;21.00;10.65;;;;;;;;;;6173770;23;20460;-44
2023/09/10 10:11:47;;;;;;;19.88;10.63;;;;;;;;;;6179417;23;20012;-43
2023/09/10 10:14:15;;;;;;;17.48;10.27;;;;;;;;;;6183488;23;20013;-46
2023/09/10 10:16:43;;;;;;;19.20;9.88;;;;;;;;;;6181331;23;20059;-45
2023/09/10 10:19:11;;;;;;;17.67;10.43;;;;;;;;;;6183617;23;20074;-45
2023/09/10 10:21:41;;;;;;;18.08;11.00;;;;;;;;;;6173545;23;20024;-43
2023/09/10 10:24:11;;;;;;;19.50;10.30;;;;;;;;;;6167557;23;20020;-43
2023/09/10 10:26:40;;;;;;;22.58;10.65;;;;;;;;;;6164497;23;20016;-44
2023/09/10 10:29:09;;;;;;;19.08;11.50;;;;;;;;;;6180962;23;20025;-44
2023/09/10 10:31:40;;;;;;;19.87;11.73;;;;;;;;;;6143541;23;20297;-43
2023/09/10 10:34:09;;;;;;;20.08;11.40;;;;;;;;;;6172582;23;20063;-43
2023/09/10 10:36:50;;;;;;;20.85;13.25;;;;;;;;;;6168429;23;20025;-45
2023/09/10 10:39:23;;;;;;;20.70;12.13;;;;;;;;;;6174181;23;20096;-43
2023/09/10 10:41:53;;;;;;;25.48;13.30;;;;;;;;;;6179974;23;20020;-46
2023/09/10 10:44:25;;;;;;;23.43;13.23;;;;;;;;;;6174187;23;20031;-45
2023/09/10 10:46:58;;;;;;;21.33;12.95;;;;;;;;;;6144757;23;21000;-43
2023/09/10 10:49:26;;;;;;;20.60;13.25;;;;;;;;;;6169293;23;20478;-46
2023/09/10 10:51:55;;;;;;;24.08;14.30;;;;;;;;;;6168795;23;20016;-43
2023/09/10 10:54:27;;;;;;;26.73;13.40;;;;;;;;;;6175925;23;20024;-41
2023/09/10 10:56:55;;;;;;;24.47;15.33;;;;;;;;;;6175890;23;20044;-46
2023/09/10 10:59:23;;;;;;;21.63;14.48;;;;;;;;;;6168479;23;20025;-48
2023/09/10 11:02:12;;;;;;;23.42;14.52;;;;;;;;;;6175178;23;20450;-46
2023/09/10 11:04:53;;;;;;;22.33;15.07;;;;;;;;;;6170696;23;20387;-44
2023/09/10 11:07:22;;;;;;;20.38;13.93;;;;;;;;;;6168837;23;20564;-44
2023/09/10 11:09:51;;;;;;;24.40;14.50;;;;;;;;;;6167571;23;20025;-47
2023/09/10 11:12:19;;;;;;;24.17;15.07;;;;;;;;;;6171076;23;20027;-44
2023/09/10 11:15:06;;;;;;;23.30;14.45;;;;;;;;;;6175766;23;20031;-44
2023/09/10 11:17:35;;;;;;;22.38;15.02;;;;;;;;;;6174006;23;20344;-44
2023/09/10 11:20:05;;;;;;;26.83;15.82;;;;;;;;;;6177144;23;20024;-42
2023/09/10 11:22:51;;;;;;;27.10;16.90;;;;;;;;;;6180126;23;20150;-42
2023/09/10 11:25:21;;;;;;;25.08;17.38;;;;;;;;;;6168640;23;20094;-42
2023/09/10 11:27:52;;;;;;;24.75;17.08;;;;;;;;;;6177331;23;20092;-48
2023/09/10 11:30:21;;;;;;;25.40;16.17;;;;;;;;;;6171101;23;20448;-44
2023/09/10 11:32:50;;;;;;;25.25;16.15;;;;;;;;;;6183284;23;20022;-45
2023/09/10 11:35:23;;;;;;;24.17;15.77;;;;;;;;;;6174355;23;20108;-46
2023/09/10 11:37:53;;;;;;;21.85;14.85;;;;;;;;;;6165100;23;20518;-45
2023/09/10 11:40:22;;;;;;;25.98;15.18;;;;;;;;;;6164931;23;20491;-42
2023/09/10 11:42:50;;;;;;;27.88;15.82;;;;;;;;;;6111720;23;20024;-42
2023/09/10 11:45:19;;;;;;;24.45;16.40;;;;;;;;;;6172330;23;20349;-43
2023/09/10 11:47:50;;;;;;;25.17;15.53;;;;;;;;;;6172498;23;20448;-43
2023/09/10 11:50:23;;;;;;;24.50;15.13;;;;;;;;;;6182249;23;20021;-45
2023/09/10 11:52:52;;;;;;;26.50;15.85;;;;;;;;;;6171343;23;20110;-44
2023/09/10 11:55:31;;;;;;;28.77;15.35;;;;;;;;;;6138350;23;20028;-61
2023/09/10 11:58:10;;;;;;;23.48;15.60;;;;;;;;;;6035970;22;20024;-57
2023/09/10 12:00:39;;;;;;;21.30;14.13;;;;;;;;;;6105758;23;20024;-56
2023/09/10 12:03:08;;;;;;;24.17;14.57;;;;;;;;;;6174268;23;20043;-57
2023/09/10 12:05:36;;;;;;;22.13;14.13;;;;;;;;;;6155782;23;20340;-57
2023/09/10 12:08:10;;;;;;;20.42;13.38;;;;;;;;;;6178170;23;20012;-58
2023/09/10 12:10:41;;;;;;;22.17;14.60;;;;;;;;;;6175663;23;20027;-57
2023/09/10 12:13:09;;;;;;;23.03;14.47;;;;;;;;;;6165021;23;20012;-57
2023/09/10 12:15:37;;;;;;;20.33;14.23;;;;;;;;;;6171392;23;20012;-57
2023/09/10 12:18:05;;;;;;;20.27;14.50;;;;;;;;;;6149964;23;20020;-57
2023/09/10 12:20:34;;;;;;;19.35;11.60;;;;;;;;;;6170799;23;20461;-57
2023/09/10 12:23:03;;;;;;;17.30;9.35;;;;;;;;;;6172842;23;20796;-58
2023/09/10 12:25:33;;;;;;;10.17;6.53;;;;;;;;;;6163193;23;20025;-57
2023/09/10 12:28:02;;;;;;;14.45;8.18;;;;;;;;;;6167012;23;20032;-57
2023/09/10 12:30:30;;;;;;;12.50;7.68;;;;;;;;;;6171827;23;20012;-57
2023/09/10 12:32:57;;;;;;;14.20;7.97;;;;;;;;;;6162851;23;20017;-57
2023/09/10 12:35:26;;;;;;;11.75;7.35;;;;;;;;;;6165832;23;20012;-58
2023/09/10 12:37:54;;;;;;;14.03;7.47;;;;;;;;;;6178417;23;20648;-59
2023/09/10 12:40:24;;;;;;;13.30;7.93;;;;;;;;;;6166087;23;20024;-59
2023/09/10 12:42:53;;;;;;;14.43;8.32;;;;;;;;;;6175956;23;20020;-59
2023/09/10 12:45:22;;;;;;;15.07;8.15;;;;;;;;;;6166656;23;20024;-57
2023/09/10 12:47:50;;;;;;;12.68;8.02;;;;;;;;;;6162253;23;20357;-56
2023/09/10 12:50:18;;;;;;;12.03;7.10;;;;;;;;;;6167922;23;20016;-57
2023/09/10 12:52:46;;;;;;;13.60;6.35;;;;;;;;;;6168590;23;20338;-56
2023/09/10 12:55:17;;;;;;;13.25;6.15;;;;;;;;;;6161751;23;20016;-59
2023/09/10 12:57:51;;;;;;;10.75;5.93;;;;;;;;;;6175635;23;20024;-59
2023/09/10 13:00:21;;;;;;;11.73;5.28;;;;;;;;;;6144685;23;20023;-58
2023/09/10 13:02:52;;;;;;;9.30;5.53;;;;;;;;;;6139704;23;20068;-57
2023/09/10 13:05:19;;;;;;;14.43;5.47;;;;;;;;;;6162582;23;20032;-59
2023/09/10 13:07:49;;;;;;;12.00;6.07;;;;;;;;;;6155224;23;20452;-59
2023/09/10 13:10:19;;;;;;;9.05;5.38;;;;;;;;;;6160626;23;20068;-58
2023/09/10 13:12:47;;;;;;;9.30;5.40;;;;;;;;;;6145721;23;20036;-59
2023/09/10 13:15:16;;;;;;;11.73;5.10;;;;;;;;;;6155436;23;20024;-56
2023/09/10 13:17:43;;;;;;;8.68;5.03;;;;;;;;;;6146205;23;20021;-59
2023/09/10 13:20:13;;;;;;;8.82;3.97;;;;;;;;;;6161449;23;20013;-59
2023/09/10 13:22:41;;;;;;;11.50;4.97;;;;;;;;;;6139002;23;20394;-56
2023/09/10 13:25:09;;;;;;;8.80;4.30;;;;;;;;;;6162646;23;20016;-59
2023/09/10 13:27:36;;;;;;;9.00;5.20;;;;;;;;;;6143668;23;20021;-58
2023/09/10 13:30:05;;;;;;;8.35;4.82;;;;;;;;;;6153489;23;20017;-59
2023/09/10 13:32:33;;;;;;;9.55;4.20;;;;;;;;;;6150173;23;20021;-59
2023/09/10 13:35:01;;;;;;;8.70;4.95;;;;;;;;;;6107509;23;20017;-58
2023/09/10 13:37:30;;;;;;;10.63;4.40;;;;;;;;;;6148495;23;20598;-58
2023/09/10 13:39:58;;;;;;;7.73;3.80;;;;;;;;;;6150416;23;20324;-57
2023/09/10 13:42:26;;;;;;;9.38;5.03;;;;;;;;;;6147753;23;20025;-58
2023/09/10 13:45:00;;;;;;;10.50;4.15;;;;;;;;;;6150280;23;20482;-59
2023/09/10 13:47:29;;;;;;;8.60;4.28;;;;;;;;;;6151535;23;20050;-59
2023/09/10 13:49:56;;;;;;;7.63;4.35;;;;;;;;;;6156197;23;20075;-58
2023/09/10 13:52:24;;;;;;;9.80;4.30;;;;;;;;;;6152340;23;20081;-58
2023/09/10 13:54:53;;;;;;;7.63;3.92;;;;;;;;;;6147858;23;20040;-59
2023/09/10 13:57:21;;;;;;;9.07;4.18;;;;;;;;;;6158987;23;20028;-58
2023/09/10 13:59:49;;;;;;;8.80;4.45;;;;;;;;;;6171239;23;20016;-59
2023/09/10 14:02:17;;;;;;;6.43;3.90;;;;;;;;;;6186476;23;20469;-58
2023/09/10 14:04:45;;;;;;;7.80;3.70;;;;;;;;;;6180023;23;20404;-58
2023/09/10 14:07:13;;;;;;;9.02;4.68;;;;;;;;;;6183069;23;20036;-58
2023/09/10 14:09:41;;;;;;;7.55;4.00;;;;;;;;;;6178547;23;20332;-57
2023/09/10 14:12:10;;;;;;;7.70;4.78;;;;;;;;;;6183577;23;20470;-58
2023/09/10 14:14:38;;;;;;;6.38;4.18;;;;;;;;;;6172047;23;20024;-56
2023/09/10 14:17:05;;;;;;;9.23;4.47;;;;;;;;;;6176711;23;20017;-58
2023/09/10 14:19:34;;;;;;;8.07;4.25;;;;;;;;;;6178562;23;20040;-57
2023/09/10 14:22:02;;;;;;;7.28;4.38;;;;;;;;;;6182731;23;20019;-58
2023/09/10 14:24:30;;;;;;;7.07;4.15;;;;;;;;;;6183558;23;20012;-58
2023/09/10 14:26:58;;;;;;;10.27;4.60;;;;;;;;;;6181166;23;20017;-56
2023/09/10 14:29:27;;;;;;;9.13;4.80;;;;;;;;;;6133870;23;20023;-57
2023/09/10 14:31:56;;;;;;;9.00;5.10;;;;;;;;;;6187973;23;20020;-58